sensor_id;sensor_type;location;lat;lon;timestamp;pressure;altitude;pressure_sealevel;temperature
20490;BMP280;10403;54.092;12.122;2023-11-21T00:00:05;101290.34;;;8.85
20490;BMP280;10403;54.092;12.122;2023-11-21T00:02:37;101289.47;;;8.81
20490;BMP280;10403;54.092;12.122;2023-11-21T00:05:09;101295.59;;;8.88
20490;BMP280;10403;54.092;12.122;2023-11-21T00:07:38;101304.28;;;8.90
20490;BMP280;10403;54.092;12.122;2023-11-21T00:10:06;101291.22;;;8.81
20490;BMP280;10403;54.092;12.122;2023-11-21T00:12:35;101302.53;;;8.89
20490;BMP280;10403;54.092;12.122;2023-11-21T00:15:04;101312.13;;;8.90
20490;BMP280;10403;54.092;12.122;2023-11-21T00:17:38;101306.91;;;8.90
20490;BMP280;10403;54.092;12.122;2023-11-21T00:20:07;101314.72;;;8.90
20490;BMP280;10403;54.092;12.122;2023-11-21T00:22:35;101317.34;;;8.90
20490;BMP280;10403;54.092;12.122;2023-11-21T00:25:03;101316.44;;;8.86
20490;BMP280;10403;54.092;12.122;2023-11-21T00:27:31;101301.66;;;8.78
20490;BMP280;10403;54.092;12.122;2023-11-21T00:29:58;101313.84;;;8.85
20490;BMP280;10403;54.092;12.122;2023-11-21T00:32:25;101323.41;;;8.86
20490;BMP280;10403;54.092;12.122;2023-11-21T00:34:52;101309.47;;;8.78
20490;BMP280;10403;54.092;12.122;2023-11-21T00:37:21;101313.84;;;8.80
20490;BMP280;10403;54.092;12.122;2023-11-21T00:39:49;101316.41;;;8.82
20490;BMP280;10403;54.092;12.122;2023-11-21T00:42:16;101319.91;;;8.85
20490;BMP280;10403;54.092;12.122;2023-11-21T00:44:43;101326.03;;;8.87
20490;BMP280;10403;54.092;12.122;2023-11-21T00:47:10;101313.81;;;8.82
20490;BMP280;10403;54.092;12.122;2023-11-21T00:49:38;101326.00;;;8.86
20490;BMP280;10403;54.092;12.122;2023-11-21T00:52:06;101312.94;;;8.77
20490;BMP280;10403;54.092;12.122;2023-11-21T00:54:34;101332.94;;;8.82
20490;BMP280;10403;54.092;12.122;2023-11-21T00:57:01;101330.34;;;8.78
20490;BMP280;10403;54.092;12.122;2023-11-21T00:59:28;101339.03;;;8.78
20490;BMP280;10403;54.092;12.122;2023-11-21T01:01:56;101348.59;;;8.76
20490;BMP280;10403;54.092;12.122;2023-11-21T01:04:23;101340.75;;;8.73
20490;BMP280;10403;54.092;12.122;2023-11-21T01:06:50;101341.63;;;8.72
20490;BMP280;10403;54.092;12.122;2023-11-21T01:09:17;101352.94;;;8.70
20490;BMP280;10403;54.092;12.122;2023-11-21T01:11:45;101355.50;;;8.65
20490;BMP280;10403;54.092;12.122;2023-11-21T01:14:13;101355.50;;;8.61
20490;BMP280;10403;54.092;12.122;2023-11-21T01:16:40;101361.56;;;8.57
20490;BMP280;10403;54.092;12.122;2023-11-21T01:19:08;101366.81;;;8.60
20490;BMP280;10403;54.092;12.122;2023-11-21T01:21:36;101366.78;;;8.58
20490;BMP280;10403;54.092;12.122;2023-11-21T01:24:04;101370.28;;;8.59
20490;BMP280;10403;54.092;12.122;2023-11-21T01:26:34;101372.88;;;8.59
20490;BMP280;10403;54.092;12.122;2023-11-21T01:29:01;101372.88;;;8.57
20490;BMP280;10403;54.092;12.122;2023-11-21T01:31:29;101366.81;;;8.60
20490;BMP280;10403;54.092;12.122;2023-11-21T01:33:57;101378.97;;;8.61
20490;BMP280;10403;54.092;12.122;2023-11-21T01:36:33;101382.47;;;8.60
20490;BMP280;10403;54.092;12.122;2023-11-21T01:39:00;101368.50;;;8.54
20490;BMP280;10403;54.092;12.122;2023-11-21T01:41:28;101385.06;;;8.60
20490;BMP280;10403;54.092;12.122;2023-11-21T01:43:56;101372.00;;;8.57
20490;BMP280;10403;54.092;12.122;2023-11-21T01:46:24;101377.25;;;8.60
20490;BMP280;10403;54.092;12.122;2023-11-21T01:48:52;101377.22;;;8.57
20490;BMP280;10403;54.092;12.122;2023-11-21T01:51:20;101389.41;;;8.58
20490;BMP280;10403;54.092;12.122;2023-11-21T01:53:47;101389.41;;;8.58
20490;BMP280;10403;54.092;12.122;2023-11-21T01:56:15;101375.44;;;8.46
20490;BMP280;10403;54.092;12.122;2023-11-21T01:58:43;101384.13;;;8.48
20490;BMP280;10403;54.092;12.122;2023-11-21T02:01:10;101396.31;;;8.52
20490;BMP280;10403;54.092;12.122;2023-11-21T02:03:37;101402.41;;;8.53
20490;BMP280;10403;54.092;12.122;2023-11-21T02:06:05;101407.63;;;8.51
20490;BMP280;10403;54.092;12.122;2023-11-21T02:08:33;101401.53;;;8.49
20490;BMP280;10403;54.092;12.122;2023-11-21T02:11:00;101405.88;;;8.50
20490;BMP280;10403;54.092;12.122;2023-11-21T02:13:27;101408.47;;;8.49
20490;BMP280;10403;54.092;12.122;2023-11-21T02:15:55;101411.09;;;8.49
20490;BMP280;10403;54.092;12.122;2023-11-21T02:18:23;101414.56;;;8.49
20490;BMP280;10403;54.092;12.122;2023-11-21T02:20:50;101406.72;;;8.46
20490;BMP280;10403;54.092;12.122;2023-11-21T02:23:18;101419.78;;;8.51
20490;BMP280;10403;54.092;12.122;2023-11-21T02:25:45;101419.78;;;8.49
20490;BMP280;10403;54.092;12.122;2023-11-21T02:28:14;101418.03;;;8.47
20490;BMP280;10403;54.092;12.122;2023-11-21T02:30:43;101421.50;;;8.47
20490;BMP280;10403;54.092;12.122;2023-11-21T02:33:10;101410.16;;;8.39
20490;BMP280;10403;54.092;12.122;2023-11-21T02:35:39;101437.13;;;8.46
20490;BMP280;10403;54.092;12.122;2023-11-21T02:38:06;101439.75;;;8.46
20490;BMP280;10403;54.092;12.122;2023-11-21T02:40:34;101435.38;;;8.45
20490;BMP280;10403;54.092;12.122;2023-11-21T02:43:01;101438.00;;;8.46
20490;BMP280;10403;54.092;12.122;2023-11-21T02:54:08;101458.84;;;8.43
20490;BMP280;10403;54.092;12.122;2023-11-21T02:56:35;101450.16;;;8.43
20490;BMP280;10403;54.092;12.122;2023-11-21T02:59:03;101454.50;;;8.42
20490;BMP280;10403;54.092;12.122;2023-11-21T03:01:30;101452.78;;;8.41
20490;BMP280;10403;54.092;12.122;2023-11-21T03:03:58;101456.25;;;8.45
20490;BMP280;10403;54.092;12.122;2023-11-21T03:06:25;101453.63;;;8.45
20490;BMP280;10403;54.092;12.122;2023-11-21T03:08:52;101444.94;;;8.43
20490;BMP280;10403;54.092;12.122;2023-11-21T03:11:19;101458.00;;;8.46
20490;BMP280;10403;54.092;12.122;2023-11-21T03:13:47;101461.47;;;8.46
20490;BMP280;10403;54.092;12.122;2023-11-21T03:16:15;101465.81;;;8.44
20490;BMP280;10403;54.092;12.122;2023-11-21T03:18:42;101464.06;;;8.42
20490;BMP280;10403;54.092;12.122;2023-11-21T03:21:12;101472.75;;;8.42
20490;BMP280;10403;54.092;12.122;2023-11-21T03:23:39;101471.88;;;8.39
20490;BMP280;10403;54.092;12.122;2023-11-21T03:26:11;101479.69;;;8.37
20490;BMP280;10403;54.092;12.122;2023-11-21T03:28:39;101483.97;;;8.34
20490;BMP280;10403;54.092;12.122;2023-11-21T03:31:07;101483.09;;;8.33
20490;BMP280;10403;54.092;12.122;2023-11-21T03:33:36;101488.22;;;8.24
20490;BMP280;10403;54.092;12.122;2023-11-21T03:36:03;101486.47;;;8.20
20490;BMP280;10403;54.092;12.122;2023-11-21T03:38:32;101498.66;;;8.26
20490;BMP280;10403;54.092;12.122;2023-11-21T03:41:17;101500.41;;;8.22
20490;BMP280;10403;54.092;12.122;2023-11-21T03:43:44;101498.59;;;8.15
20490;BMP280;10403;54.092;12.122;2023-11-21T03:46:11;101506.47;;;8.21
20490;BMP280;10403;54.092;12.122;2023-11-21T03:48:39;101504.75;;;8.22
20490;BMP280;10403;54.092;12.122;2023-11-21T03:51:07;101505.59;;;8.21
20490;BMP280;10403;54.092;12.122;2023-11-21T03:53:34;101509.06;;;8.20
20490;BMP280;10403;54.092;12.122;2023-11-21T03:56:03;101509.94;;;8.22
20490;BMP280;10403;54.092;12.122;2023-11-21T03:58:30;101519.50;;;8.21
20490;BMP280;10403;54.092;12.122;2023-11-21T04:00:58;101511.69;;;8.21
20490;BMP280;10403;54.092;12.122;2023-11-21T04:03:27;101500.28;;;8.13
20490;BMP280;10403;54.092;12.122;2023-11-21T04:05:55;101515.97;;;8.16
20490;BMP280;10403;54.092;12.122;2023-11-21T04:08:22;101509.00;;;8.12
20490;BMP280;10403;54.092;12.122;2023-11-21T04:10:49;101531.63;;;8.19
20490;BMP280;10403;54.092;12.122;2023-11-21T04:13:16;101529.88;;;8.16
20490;BMP280;10403;54.092;12.122;2023-11-21T04:15:44;101535.97;;;8.17
20490;BMP280;10403;54.092;12.122;2023-11-21T04:18:11;101542.03;;;8.16
20490;BMP280;10403;54.092;12.122;2023-11-21T04:20:39;101535.94;;;8.15
20490;BMP280;10403;54.092;12.122;2023-11-21T04:23:06;101543.75;;;8.14
20490;BMP280;10403;54.092;12.122;2023-11-21T04:25:33;101547.22;;;8.13
20490;BMP280;10403;54.092;12.122;2023-11-21T04:28:00;101559.38;;;8.11
20490;BMP280;10403;54.092;12.122;2023-11-21T04:30:28;101559.38;;;8.11
20490;BMP280;10403;54.092;12.122;2023-11-21T04:32:55;101559.31;;;8.06
20490;BMP280;10403;54.092;12.122;2023-11-21T04:35:22;101568.88;;;8.07
20490;BMP280;10403;54.092;12.122;2023-11-21T04:37:49;101565.44;;;8.08
20490;BMP280;10403;54.092;12.122;2023-11-21T04:40:18;101558.44;;;8.04
20490;BMP280;10403;54.092;12.122;2023-11-21T04:42:47;101559.31;;;8.05
20490;BMP280;10403;54.092;12.122;2023-11-21T04:45:15;101577.63;;;8.11
20490;BMP280;10403;54.092;12.122;2023-11-21T04:47:42;101581.09;;;8.11
20490;BMP280;10403;54.092;12.122;2023-11-21T04:50:10;101576.75;;;8.12
20490;BMP280;10403;54.092;12.122;2023-11-21T04:52:37;101582.84;;;8.12
20490;BMP280;10403;54.092;12.122;2023-11-21T04:55:05;101570.59;;;8.05
20490;BMP280;10403;54.092;12.122;2023-11-21T04:57:37;101577.59;;;8.09
20490;BMP280;10403;54.092;12.122;2023-11-21T05:00:05;101576.72;;;8.09
20490;BMP280;10403;54.092;12.122;2023-11-21T05:02:33;101584.47;;;8.04
20490;BMP280;10403;54.092;12.122;2023-11-21T05:05:03;101587.13;;;8.06
20490;BMP280;10403;54.092;12.122;2023-11-21T05:07:33;101582.72;;;7.99
20490;BMP280;10403;54.092;12.122;2023-11-21T05:10:05;101598.38;;;8.03
20490;BMP280;10403;54.092;12.122;2023-11-21T05:12:38;101599.25;;;8.04
20490;BMP280;10403;54.092;12.122;2023-11-21T05:15:08;101601.88;;;8.05
20490;BMP280;10403;54.092;12.122;2023-11-21T05:17:39;101610.59;;;8.07
20490;BMP280;10403;54.092;12.122;2023-11-21T05:20:12;101615.78;;;8.06
20490;BMP280;10403;54.092;12.122;2023-11-21T05:22:41;101617.53;;;8.07
20490;BMP280;10403;54.092;12.122;2023-11-21T05:25:09;101620.16;;;8.10
20490;BMP280;10403;54.092;12.122;2023-11-21T05:27:38;101625.38;;;8.10
20490;BMP280;10403;54.092;12.122;2023-11-21T05:30:06;101623.66;;;8.10
20490;BMP280;10403;54.092;12.122;2023-11-21T05:32:34;101624.53;;;8.11
20490;BMP280;10403;54.092;12.122;2023-11-21T05:35:01;101616.63;;;8.05
20490;BMP280;10403;54.092;12.122;2023-11-21T05:37:28;101621.03;;;8.09
20490;BMP280;10403;54.092;12.122;2023-11-21T05:39:56;101623.69;;;8.12
20490;BMP280;10403;54.092;12.122;2023-11-21T05:42:23;101622.78;;;8.10
20490;BMP280;10403;54.092;12.122;2023-11-21T05:44:50;101628.03;;;8.16
20490;BMP280;10403;54.092;12.122;2023-11-21T05:47:17;101634.97;;;8.15
20490;BMP280;10403;54.092;12.122;2023-11-21T05:49:45;101632.34;;;8.14
20490;BMP280;10403;54.092;12.122;2023-11-21T05:52:18;101641.91;;;8.13
20490;BMP280;10403;54.092;12.122;2023-11-21T05:54:45;101641.94;;;8.15
20490;BMP280;10403;54.092;12.122;2023-11-21T05:57:12;101648.84;;;8.13
20490;BMP280;10403;54.092;12.122;2023-11-21T05:59:40;101660.16;;;8.15
20490;BMP280;10403;54.092;12.122;2023-11-21T06:02:07;101672.31;;;8.13
20490;BMP280;10403;54.092;12.122;2023-11-21T06:04:34;101667.09;;;8.11
20490;BMP280;10403;54.092;12.122;2023-11-21T06:07:02;101665.28;;;8.06
20490;BMP280;10403;54.092;12.122;2023-11-21T06:09:29;101673.97;;;8.06
20490;BMP280;10403;54.092;12.122;2023-11-21T06:11:56;101680.91;;;8.06
20490;BMP280;10403;54.092;12.122;2023-11-21T06:14:23;101682.63;;;8.04
20490;BMP280;10403;54.092;12.122;2023-11-21T06:16:50;101684.38;;;8.02
20490;BMP280;10403;54.092;12.122;2023-11-21T06:19:19;101694.75;;;7.99
20490;BMP280;10403;54.092;12.122;2023-11-21T06:21:46;101694.69;;;7.96
20490;BMP280;10403;54.092;12.122;2023-11-21T06:24:14;101699.91;;;7.96
20490;BMP280;10403;54.092;12.122;2023-11-21T06:26:42;101697.28;;;7.93
20490;BMP280;10403;54.092;12.122;2023-11-21T06:29:11;101667.59;;;7.78
20490;BMP280;10403;54.092;12.122;2023-11-21T06:31:38;101684.13;;;7.82
20490;BMP280;10403;54.092;12.122;2023-11-21T06:34:07;101698.91;;;7.83
20490;BMP280;10403;54.092;12.122;2023-11-21T06:36:36;101709.31;;;7.85
20490;BMP280;10403;54.092;12.122;2023-11-21T06:39:04;101694.38;;;7.68
20490;BMP280;10403;54.092;12.122;2023-11-21T06:41:34;101695.19;;;7.66
20490;BMP280;10403;54.092;12.122;2023-11-21T06:44:01;101717.13;;;7.82
20490;BMP280;10403;54.092;12.122;2023-11-21T06:46:29;101721.47;;;7.81
20490;BMP280;10403;54.092;12.122;2023-11-21T06:48:57;101713.56;;;7.76
20490;BMP280;10403;54.092;12.122;2023-11-21T06:51:24;101716.16;;;7.73
20490;BMP280;10403;54.092;12.122;2023-11-21T06:53:52;101720.53;;;7.77
20490;BMP280;10403;54.092;12.122;2023-11-21T06:56:19;101728.34;;;7.77
20490;BMP280;10403;54.092;12.122;2023-11-21T06:58:47;101743.97;;;7.77
20490;BMP280;10403;54.092;12.122;2023-11-21T07:01:14;101739.59;;;7.73
20490;BMP280;10403;54.092;12.122;2023-11-21T07:03:42;101757.00;;;7.77
20490;BMP280;10403;54.092;12.122;2023-11-21T07:06:09;101756.16;;;7.78
20490;BMP280;10403;54.092;12.122;2023-11-21T07:08:37;101730.75;;;7.62
20490;BMP280;10403;54.092;12.122;2023-11-21T07:11:04;101697.50;;;7.43
20490;BMP280;10403;54.092;12.122;2023-11-21T07:13:32;101760.44;;;7.75
20490;BMP280;10403;54.092;12.122;2023-11-21T07:15:59;101770.91;;;7.78
20490;BMP280;10403;54.092;12.122;2023-11-21T07:18:27;101783.13;;;7.84
20490;BMP280;10403;54.092;12.122;2023-11-21T07:20:54;101767.41;;;7.77
20490;BMP280;10403;54.092;12.122;2023-11-21T07:23:21;101783.09;;;7.80
20490;BMP280;10403;54.092;12.122;2023-11-21T07:25:49;101773.50;;;7.78
20490;BMP280;10403;54.092;12.122;2023-11-21T07:28:17;101794.50;;;7.89
20490;BMP280;10403;54.092;12.122;2023-11-21T07:30:44;101798.88;;;7.91
20490;BMP280;10403;54.092;12.122;2023-11-21T07:33:11;101784.81;;;7.78
20490;BMP280;10403;54.092;12.122;2023-11-21T07:35:39;101814.53;;;7.93
20490;BMP280;10403;54.092;12.122;2023-11-21T07:38:06;101816.16;;;7.86
20490;BMP280;10403;54.092;12.122;2023-11-21T07:40:33;101816.19;;;7.88
20490;BMP280;10403;54.092;12.122;2023-11-21T07:43:01;101817.97;;;7.90
20490;BMP280;10403;54.092;12.122;2023-11-21T07:45:28;101824.97;;;7.93
20490;BMP280;10403;54.092;12.122;2023-11-21T07:47:56;101805.75;;;7.86
20490;BMP280;10403;54.092;12.122;2023-11-21T07:50:23;101824.09;;;7.95
20490;BMP280;10403;54.092;12.122;2023-11-21T07:52:51;101819.78;;;7.96
20490;BMP280;10403;54.092;12.122;2023-11-21T07:55:18;101830.25;;;7.99
20490;BMP280;10403;54.092;12.122;2023-11-21T07:57:46;101829.41;;;8.01
20490;BMP280;10403;54.092;12.122;2023-11-21T08:00:14;101829.44;;;8.03
20490;BMP280;10403;54.092;12.122;2023-11-21T08:02:42;101832.06;;;8.03
20490;BMP280;10403;54.092;12.122;2023-11-21T08:05:10;101821.53;;;7.97
20490;BMP280;10403;54.092;12.122;2023-11-21T08:07:51;101826.78;;;8.00
20490;BMP280;10403;54.092;12.122;2023-11-21T08:10:18;101829.41;;;8.01
20490;BMP280;10403;54.092;12.122;2023-11-21T08:12:46;101844.25;;;8.07
20490;BMP280;10403;54.092;12.122;2023-11-21T08:15:24;101815.34;;;7.89
20490;BMP280;10403;54.092;12.122;2023-11-21T08:17:52;101833.66;;;7.95
20490;BMP280;10403;54.092;12.122;2023-11-21T08:20:19;101846.69;;;7.95
20490;BMP280;10403;54.092;12.122;2023-11-21T08:22:47;101843.16;;;7.90
20490;BMP280;10403;54.092;12.122;2023-11-21T08:25:15;101866.72;;;7.99
20490;BMP280;10403;54.092;12.122;2023-11-21T08:27:46;101836.88;;;7.77
20490;BMP280;10403;54.092;12.122;2023-11-21T08:30:14;101873.75;;;8.03
20490;BMP280;10403;54.092;12.122;2023-11-21T08:32:44;101858.84;;;7.94
20490;BMP280;10403;54.092;12.122;2023-11-21T08:35:12;101854.41;;;7.89
20490;BMP280;10403;54.092;12.122;2023-11-21T08:37:39;101862.31;;;7.95
20490;BMP280;10403;54.092;12.122;2023-11-21T08:40:08;101881.53;;;8.01
20490;BMP280;10403;54.092;12.122;2023-11-21T08:42:36;101790.41;;;7.47
20490;BMP280;10403;54.092;12.122;2023-11-21T08:45:05;101878.84;;;7.97
20490;BMP280;10403;54.092;12.122;2023-11-21T08:47:36;101876.22;;;7.95
20490;BMP280;10403;54.092;12.122;2023-11-21T08:50:04;101876.22;;;7.95
20490;BMP280;10403;54.092;12.122;2023-11-21T08:52:34;101870.97;;;7.91
20490;BMP280;10403;54.092;12.122;2023-11-21T08:55:01;101887.66;;;8.05
20490;BMP280;10403;54.092;12.122;2023-11-21T08:57:38;101894.72;;;8.12
20490;BMP280;10403;54.092;12.122;2023-11-21T09:00:08;101903.47;;;8.17
20490;BMP280;10403;54.092;12.122;2023-11-21T09:02:39;101913.09;;;8.21
20490;BMP280;10403;54.092;12.122;2023-11-21T09:05:13;101907.00;;;8.19
20490;BMP280;10403;54.092;12.122;2023-11-21T09:07:42;101915.72;;;8.21
20490;BMP280;10403;54.092;12.122;2023-11-21T09:10:10;101907.03;;;8.22
20490;BMP280;10403;54.092;12.122;2023-11-21T09:12:37;101908.88;;;8.29
20490;BMP280;10403;54.092;12.122;2023-11-21T09:15:06;101915.84;;;8.30
20490;BMP280;10403;54.092;12.122;2023-11-21T09:17:35;101924.66;;;8.38
20490;BMP280;10403;54.092;12.122;2023-11-21T09:20:03;101912.41;;;8.31
20490;BMP280;10403;54.092;12.122;2023-11-21T09:22:37;101938.63;;;8.40
20490;BMP280;10403;54.092;12.122;2023-11-21T09:25:05;101928.97;;;8.36
20490;BMP280;10403;54.092;12.122;2023-11-21T09:27:32;101932.50;;;8.38
20490;BMP280;10403;54.092;12.122;2023-11-21T09:29:59;101944.72;;;8.41
20490;BMP280;10403;54.092;12.122;2023-11-21T09:32:27;101939.38;;;8.35
20490;BMP280;10403;54.092;12.122;2023-11-21T09:34:55;101954.22;;;8.37
20490;BMP280;10403;54.092;12.122;2023-11-21T09:37:25;101957.66;;;8.36
20490;BMP280;10403;54.092;12.122;2023-11-21T09:39:54;101957.72;;;8.39
20490;BMP280;10403;54.092;12.122;2023-11-21T09:42:40;101965.56;;;8.41
20490;BMP280;10403;54.092;12.122;2023-11-21T09:45:40;101965.59;;;8.44
20490;BMP280;10403;54.092;12.122;2023-11-21T09:48:10;101966.41;;;8.38
20490;BMP280;10403;54.092;12.122;2023-11-21T09:50:42;101968.09;;;8.36
20490;BMP280;10403;54.092;12.122;2023-11-21T09:53:21;101989.09;;;8.45
20490;BMP280;10403;54.092;12.122;2023-11-21T09:55:52;101987.34;;;8.44
20490;BMP280;10403;54.092;12.122;2023-11-21T09:58:21;101978.41;;;8.30
20490;BMP280;10403;54.092;12.122;2023-11-21T10:00:54;101973.13;;;8.26
20490;BMP280;10403;54.092;12.122;2023-11-21T10:03:23;102004.59;;;8.36
20490;BMP280;10403;54.092;12.122;2023-11-21T10:05:53;102002.84;;;8.35
20490;BMP280;10403;54.092;12.122;2023-11-21T10:08:24;102011.53;;;8.36
20490;BMP280;10403;54.092;12.122;2023-11-21T10:10:54;102010.63;;;8.34
20490;BMP280;10403;54.092;12.122;2023-11-21T10:13:21;102014.03;;;8.30
20490;BMP280;10403;54.092;12.122;2023-11-21T10:15:51;102006.19;;;8.28
20490;BMP280;10403;54.092;12.122;2023-11-21T10:18:20;102015.78;;;8.29
20490;BMP280;10403;54.092;12.122;2023-11-21T10:20:50;102005.16;;;8.18
20490;BMP280;10403;54.092;12.122;2023-11-21T10:23:22;102025.28;;;8.27
20490;BMP280;10403;54.092;12.122;2023-11-21T10:25:52;102020.97;;;8.29
20490;BMP280;10403;54.092;12.122;2023-11-21T10:28:21;102009.63;;;8.26
20490;BMP280;10403;54.092;12.122;2023-11-21T10:30:49;102000.00;;;8.22
20490;BMP280;10403;54.092;12.122;2023-11-21T10:33:16;101993.00;;;8.19
20490;BMP280;10403;54.092;12.122;2023-11-21T10:35:48;102026.34;;;8.37
20490;BMP280;10403;54.092;12.122;2023-11-21T10:38:18;101983.44;;;8.18
20490;BMP280;10403;54.092;12.122;2023-11-21T10:40:48;102028.13;;;8.39
20490;BMP280;10403;54.092;12.122;2023-11-21T10:43:17;102025.53;;;8.42
20490;BMP280;10403;54.092;12.122;2023-11-21T10:45:45;102031.66;;;8.44
20490;BMP280;10403;54.092;12.122;2023-11-21T10:48:14;102028.16;;;8.42
20490;BMP280;10403;54.092;12.122;2023-11-21T10:50:47;102042.94;;;8.43
20490;BMP280;10403;54.092;12.122;2023-11-21T10:53:14;101960.53;;;7.99
20490;BMP280;10403;54.092;12.122;2023-11-21T10:55:42;102032.50;;;8.40
20490;BMP280;10403;54.092;12.122;2023-11-21T10:58:14;102047.34;;;8.46
20490;BMP280;10403;54.092;12.122;2023-11-21T11:00:43;102039.50;;;8.44
20490;BMP280;10403;54.092;12.122;2023-11-21T11:03:12;102049.00;;;8.42
20490;BMP280;10403;54.092;12.122;2023-11-21T11:05:44;102049.06;;;8.45
20490;BMP280;10403;54.092;12.122;2023-11-21T11:08:21;102054.28;;;8.45
20490;BMP280;10403;54.092;12.122;2023-11-21T11:10:55;102042.91;;;8.40
20490;BMP280;10403;54.092;12.122;2023-11-21T11:13:22;102027.13;;;8.31
20490;BMP280;10403;54.092;12.122;2023-11-21T11:15:58;102038.34;;;8.29
20490;BMP280;10403;54.092;12.122;2023-11-21T11:18:29;102042.59;;;8.24
20490;BMP280;10403;54.092;12.122;2023-11-21T11:21:31;102033.88;;;8.20
20490;BMP280;10403;54.092;12.122;2023-11-21T11:26:58;102043.66;;;8.33
20490;BMP280;10403;54.092;12.122;2023-11-21T11:32:37;102052.34;;;8.32
20490;BMP280;10403;54.092;12.122;2023-11-21T11:35:25;102038.25;;;8.24
20490;BMP280;10403;54.092;12.122;2023-11-21T11:37:53;102046.09;;;8.24
20490;BMP280;10403;54.092;12.122;2023-11-21T11:40:22;102055.75;;;8.30
20490;BMP280;10403;54.092;12.122;2023-11-21T11:43:01;102059.31;;;8.32
20490;BMP280;10403;54.092;12.122;2023-11-21T11:45:35;102059.31;;;8.32
20490;BMP280;10403;54.092;12.122;2023-11-21T11:48:04;102057.50;;;8.31
20490;BMP280;10403;54.092;12.122;2023-11-21T11:50:32;102040.00;;;8.24
20490;BMP280;10403;54.092;12.122;2023-11-21T11:53:15;102068.94;;;8.37
20490;BMP280;10403;54.092;12.122;2023-11-21T11:55:43;102060.09;;;8.29
20490;BMP280;10403;54.092;12.122;2023-11-21T11:58:10;102074.94;;;8.32
20490;BMP280;10403;54.092;12.122;2023-11-21T12:00:39;102056.41;;;8.16
20490;BMP280;10403;54.092;12.122;2023-11-21T12:03:09;102091.47;;;8.32
20490;BMP280;10403;54.092;12.122;2023-11-21T12:05:37;102093.09;;;8.29
20490;BMP280;10403;54.092;12.122;2023-11-21T12:08:08;102095.59;;;8.21
20490;BMP280;10403;54.092;12.122;2023-11-21T12:10:38;102095.53;;;8.18
20490;BMP280;10403;54.092;12.122;2023-11-21T12:13:09;102102.44;;;8.16
20490;BMP280;10403;54.092;12.122;2023-11-21T12:15:38;102113.69;;;8.12
20490;BMP280;10403;54.092;12.122;2023-11-21T12:18:08;102106.63;;;8.08
20490;BMP280;10403;54.092;12.122;2023-11-21T12:20:35;102108.41;;;8.09
20490;BMP280;10403;54.092;12.122;2023-11-21T12:23:07;102091.75;;;8.01
20490;BMP280;10403;54.092;12.122;2023-11-21T12:25:36;102122.38;;;8.14
20490;BMP280;10403;54.092;12.122;2023-11-21T12:28:04;102128.44;;;8.13
20490;BMP280;10403;54.092;12.122;2023-11-21T12:30:36;102131.94;;;8.12
20490;BMP280;10403;54.092;12.122;2023-11-21T12:33:06;102127.44;;;8.05
20490;BMP280;10403;54.092;12.122;2023-11-21T12:35:37;102114.19;;;7.93
20490;BMP280;10403;54.092;12.122;2023-11-21T12:38:05;102112.50;;;7.96
20490;BMP280;10403;54.092;12.122;2023-11-21T12:40:33;102132.63;;;8.05
20490;BMP280;10403;54.092;12.122;2023-11-21T12:43:00;102130.78;;;7.98
20490;BMP280;10403;54.092;12.122;2023-11-21T12:45:31;102146.50;;;8.04
20490;BMP280;10403;54.092;12.122;2023-11-21T12:48:05;102139.56;;;8.03
20490;BMP280;10403;54.092;12.122;2023-11-21T12:50:39;102146.50;;;8.04
20490;BMP280;10403;54.092;12.122;2023-11-21T12:53:09;102144.78;;;8.04
20490;BMP280;10403;54.092;12.122;2023-11-21T12:55:38;102156.91;;;8.01
20490;BMP280;10403;54.092;12.122;2023-11-21T12:58:08;102162.13;;;8.01
20490;BMP280;10403;54.092;12.122;2023-11-21T13:00:42;102154.91;;;7.88
20490;BMP280;10403;54.092;12.122;2023-11-21T13:03:12;102163.72;;;7.93
20490;BMP280;10403;54.092;12.122;2023-11-21T13:05:47;102168.84;;;7.90
20490;BMP280;10403;54.092;12.122;2023-11-21T13:08:23;102183.66;;;7.92
20490;BMP280;10403;54.092;12.122;2023-11-21T13:10:55;102181.94;;;7.93
20490;BMP280;10403;54.092;12.122;2023-11-21T13:13:28;102179.13;;;7.84
20490;BMP280;10403;54.092;12.122;2023-11-21T13:16:02;102181.78;;;7.85
20490;BMP280;10403;54.092;12.122;2023-11-21T13:18:33;102177.38;;;7.81
20490;BMP280;10403;54.092;12.122;2023-11-21T13:21:03;102190.50;;;7.87
20490;BMP280;10403;54.092;12.122;2023-11-21T13:23:37;102202.63;;;7.85
20490;BMP280;10403;54.092;12.122;2023-11-21T13:26:05;102202.56;;;7.82
20490;BMP280;10403;54.092;12.122;2023-11-21T13:28:35;102172.44;;;7.53
20490;BMP280;10403;54.092;12.122;2023-11-21T13:31:06;102204.81;;;7.65
20490;BMP280;10403;54.092;12.122;2023-11-21T13:33:39;102201.31;;;7.65
20490;BMP280;10403;54.092;12.122;2023-11-21T13:36:08;102208.28;;;7.66
20490;BMP280;10403;54.092;12.122;2023-11-21T13:38:37;102203.03;;;7.64
20490;BMP280;10403;54.092;12.122;2023-11-21T13:41:09;102208.31;;;7.67
20490;BMP280;10403;54.092;12.122;2023-11-21T13:43:38;102229.31;;;7.73
20490;BMP280;10403;54.092;12.122;2023-11-21T13:46:08;102221.34;;;7.67
20490;BMP280;10403;54.092;12.122;2023-11-21T13:48:49;102231.03;;;7.73
20490;BMP280;10403;54.092;12.122;2023-11-21T13:51:23;102239.59;;;7.67
20490;BMP280;10403;54.092;12.122;2023-11-21T13:54:03;102242.94;;;7.62
20490;BMP280;10403;54.092;12.122;2023-11-21T13:56:37;102236.66;;;7.52
20490;BMP280;10403;54.092;12.122;2023-11-21T13:59:06;102257.69;;;7.61
20490;BMP280;10403;54.092;12.122;2023-11-21T14:01:56;102259.50;;;7.65
20490;BMP280;10403;54.092;12.122;2023-11-21T14:04:39;102250.59;;;7.56
20490;BMP280;10403;54.092;12.122;2023-11-21T14:07:16;102265.56;;;7.64
20490;BMP280;10403;54.092;12.122;2023-11-21T14:09:59;102254.06;;;7.55
20490;BMP280;10403;54.092;12.122;2023-11-21T14:12:26;102276.81;;;7.62
20490;BMP280;10403;54.092;12.122;2023-11-21T14:14:53;102260.16;;;7.55
20490;BMP280;10403;54.092;12.122;2023-11-21T14:17:22;102277.75;;;7.65
20490;BMP280;10403;54.092;12.122;2023-11-21T14:19:51;102253.09;;;7.50
20490;BMP280;10403;54.092;12.122;2023-11-21T14:22:19;102237.19;;;7.37